sensor_id;sensor_type;location;lat;lon;timestamp;temperature;humidity
9810;DHT22;4944;52.514;13.192;2022-12-07T00:01:06;2.60;99.90
9810;DHT22;4944;52.514;13.192;2022-12-07T00:03:33;2.60;99.90
9810;DHT22;4944;52.514;13.192;2022-12-07T00:06:01;2.60;99.90
9810;DHT22;4944;52.514;13.192;2022-12-07T00:08:30;2.60;99.90
9810;DHT22;4944;52.514;13.192;2022-12-07T00:11:01;2.60;99.90
9810;DHT22;4944;52.514;13.192;2022-12-07T00:13:28;2.50;99.90
9810;DHT22;4944;52.514;13.192;2022-12-07T00:15:55;2.50;99.90
9810;DHT22;4944;52.514;13.192;2022-12-07T00:18:22;2.50;99.90
9810;DHT22;4944;52.514;13.192;2022-12-07T00:20:49;2.50;99.90
9810;DHT22;4944;52.514;13.192;2022-12-07T00:23:16;2.40;99.90
9810;DHT22;4944;52.514;13.192;2022-12-07T00:25:44;2.30;99.90
9810;DHT22;4944;52.514;13.192;2022-12-07T00:28:11;2.30;99.90
9810;DHT22;4944;52.514;13.192;2022-12-07T00:30:38;2.30;99.90
9810;DHT22;4944;52.514;13.192;2022-12-07T00:33:04;2.20;99.90
9810;DHT22;4944;52.514;13.192;2022-12-07T00:35:31;2.20;99.90
9810;DHT22;4944;52.514;13.192;2022-12-07T00:37:58;2.20;99.90
9810;DHT22;4944;52.514;13.192;2022-12-07T00:40:25;2.20;99.90
9810;DHT22;4944;52.514;13.192;2022-12-07T00:42:53;2.20;99.90
9810;DHT22;4944;52.514;13.192;2022-12-07T00:45:20;2.20;99.90
9810;DHT22;4944;52.514;13.192;2022-12-07T00:47:47;2.20;99.90
9810;DHT22;4944;52.514;13.192;2022-12-07T00:50:14;2.20;99.90
9810;DHT22;4944;52.514;13.192;2022-12-07T00:52:41;2.20;99.90
9810;DHT22;4944;52.514;13.192;2022-12-07T00:55:08;2.20;99.90
9810;DHT22;4944;52.514;13.192;2022-12-07T00:57:35;2.20;99.90
9810;DHT22;4944;52.514;13.192;2022-12-07T01:00:04;2.30;99.90
9810;DHT22;4944;52.514;13.192;2022-12-07T01:02:31;2.30;99.90
9810;DHT22;4944;52.514;13.192;2022-12-07T01:04:58;2.30;99.90
9810;DHT22;4944;52.514;13.192;2022-12-07T01:07:25;2.30;99.90
9810;DHT22;4944;52.514;13.192;2022-12-07T01:09:51;2.30;99.90
9810;DHT22;4944;52.514;13.192;2022-12-07T01:12:18;2.20;99.90
9810;DHT22;4944;52.514;13.192;2022-12-07T01:14:45;2.30;99.90
9810;DHT22;4944;52.514;13.192;2022-12-07T01:17:14;2.20;99.90
9810;DHT22;4944;52.514;13.192;2022-12-07T01:19:40;2.30;99.90
9810;DHT22;4944;52.514;13.192;2022-12-07T01:22:07;2.30;99.90
9810;DHT22;4944;52.514;13.192;2022-12-07T01:24:34;2.30;99.90
9810;DHT22;4944;52.514;13.192;2022-12-07T01:27:01;2.20;99.90
9810;DHT22;4944;52.514;13.192;2022-12-07T01:29:28;2.20;99.90
9810;DHT22;4944;52.514;13.192;2022-12-07T01:31:55;2.30;99.90
9810;DHT22;4944;52.514;13.192;2022-12-07T01:34:23;2.20;99.90
9810;DHT22;4944;52.514;13.192;2022-12-07T01:36:50;2.20;99.90
9810;DHT22;4944;52.514;13.192;2022-12-07T01:39:17;2.20;99.90
9810;DHT22;4944;52.514;13.192;2022-12-07T01:41:43;2.20;99.90
9810;DHT22;4944;52.514;13.192;2022-12-07T01:44:16;2.20;99.90
9810;DHT22;4944;52.514;13.192;2022-12-07T01:46:44;2.20;99.90
9810;DHT22;4944;52.514;13.192;2022-12-07T01:49:17;2.10;99.90
9810;DHT22;4944;52.514;13.192;2022-12-07T01:51:47;2.10;99.90
9810;DHT22;4944;52.514;13.192;2022-12-07T01:54:16;2.10;99.90
9810;DHT22;4944;52.514;13.192;2022-12-07T01:56:49;2.10;99.90
9810;DHT22;4944;52.514;13.192;2022-12-07T01:59:18;2.10;99.90
9810;DHT22;4944;52.514;13.192;2022-12-07T02:01:46;2.10;99.90
9810;DHT22;4944;52.514;13.192;2022-12-07T02:04:13;2.10;99.90
9810;DHT22;4944;52.514;13.192;2022-12-07T02:06:41;2.00;99.90
9810;DHT22;4944;52.514;13.192;2022-12-07T02:09:11;2.00;99.90
9810;DHT22;4944;52.514;13.192;2022-12-07T02:11:40;1.90;99.90
9810;DHT22;4944;52.514;13.192;2022-12-07T02:14:07;1.90;99.90
9810;DHT22;4944;52.514;13.192;2022-12-07T02:16:38;1.90;99.90
9810;DHT22;4944;52.514;13.192;2022-12-07T02:19:37;1.80;99.90
9810;DHT22;4944;52.514;13.192;2022-12-07T02:22:28;1.90;99.90
9810;DHT22;4944;52.514;13.192;2022-12-07T02:25:07;1.80;99.90
9810;DHT22;4944;52.514;13.192;2022-12-07T02:27:39;1.80;99.90
9810;DHT22;4944;52.514;13.192;2022-12-07T02:30:13;1.80;99.90
9810;DHT22;4944;52.514;13.192;2022-12-07T02:32:45;1.80;99.90
9810;DHT22;4944;52.514;13.192;2022-12-07T02:35:18;1.80;99.90
9810;DHT22;4944;52.514;13.192;2022-12-07T02:37:53;1.80;99.90
9810;DHT22;4944;52.514;13.192;2022-12-07T02:40:25;1.70;99.90
9810;DHT22;4944;52.514;13.192;2022-12-07T02:42:59;1.80;99.90
9810;DHT22;4944;52.514;13.192;2022-12-07T02:45:30;1.80;99.90
9810;DHT22;4944;52.514;13.192;2022-12-07T02:47:59;1.80;99.90
9810;DHT22;4944;52.514;13.192;2022-12-07T02:50:27;1.90;99.90
9810;DHT22;4944;52.514;13.192;2022-12-07T02:52:54;1.80;99.90
9810;DHT22;4944;52.514;13.192;2022-12-07T02:55:25;1.80;99.90
9810;DHT22;4944;52.514;13.192;2022-12-07T03:01:01;1.80;99.90
9810;DHT22;4944;52.514;13.192;2022-12-07T03:03:31;1.80;99.90
9810;DHT22;4944;52.514;13.192;2022-12-07T03:06:07;1.80;99.90
9810;DHT22;4944;52.514;13.192;2022-12-07T03:08:46;1.90;99.90
9810;DHT22;4944;52.514;13.192;2022-12-07T03:11:17;1.90;99.90
9810;DHT22;4944;52.514;13.192;2022-12-07T03:13:53;1.90;99.90
9810;DHT22;4944;52.514;13.192;2022-12-07T03:16:26;2.00;99.90
9810;DHT22;4944;52.514;13.192;2022-12-07T03:18:56;2.00;99.90
9810;DHT22;4944;52.514;13.192;2022-12-07T03:21:26;2.00;99.90
9810;DHT22;4944;52.514;13.192;2022-12-07T03:23:56;2.10;99.90
9810;DHT22;4944;52.514;13.192;2022-12-07T03:26:27;2.10;99.90
9810;DHT22;4944;52.514;13.192;2022-12-07T03:29:01;2.10;99.90
9810;DHT22;4944;52.514;13.192;2022-12-07T03:31:34;2.10;99.90
9810;DHT22;4944;52.514;13.192;2022-12-07T03:34:07;2.10;99.90
9810;DHT22;4944;52.514;13.192;2022-12-07T03:36:40;2.20;99.90
9810;DHT22;4944;52.514;13.192;2022-12-07T03:39:15;2.20;99.90
9810;DHT22;4944;52.514;13.192;2022-12-07T03:41:43;2.10;99.90
9810;DHT22;4944;52.514;13.192;2022-12-07T03:44:12;2.10;99.90
9810;DHT22;4944;52.514;13.192;2022-12-07T03:46:44;2.20;99.90
9810;DHT22;4944;52.514;13.192;2022-12-07T03:49:18;2.10;99.90
9810;DHT22;4944;52.514;13.192;2022-12-07T03:51:53;2.20;99.90
9810;DHT22;4944;52.514;13.192;2022-12-07T03:54:24;2.20;99.90
9810;DHT22;4944;52.514;13.192;2022-12-07T03:56:54;2.20;99.90
9810;DHT22;4944;52.514;13.192;2022-12-07T03:59:22;2.20;99.90
9810;DHT22;4944;52.514;13.192;2022-12-07T04:01:53;2.20;99.90
9810;DHT22;4944;52.514;13.192;2022-12-07T04:04:21;2.20;99.90
9810;DHT22;4944;52.514;13.192;2022-12-07T04:06:48;2.10;99.90
9810;DHT22;4944;52.514;13.192;2022-12-07T04:09:15;2.10;99.90
9810;DHT22;4944;52.514;13.192;2022-12-07T04:11:42;2.10;99.90
9810;DHT22;4944;52.514;13.192;2022-12-07T04:14:09;2.20;99.90
9810;DHT22;4944;52.514;13.192;2022-12-07T04:16:45;2.20;99.90
9810;DHT22;4944;52.514;13.192;2022-12-07T04:19:14;2.10;99.90
9810;DHT22;4944;52.514;13.192;2022-12-07T04:21:41;2.10;99.90
9810;DHT22;4944;52.514;13.192;2022-12-07T04:24:08;2.10;99.90
9810;DHT22;4944;52.514;13.192;2022-12-07T04:26:35;2.20;99.90
9810;DHT22;4944;52.514;13.192;2022-12-07T04:29:02;2.20;99.90
9810;DHT22;4944;52.514;13.192;2022-12-07T04:31:29;2.20;99.90
9810;DHT22;4944;52.514;13.192;2022-12-07T04:33:56;2.20;99.90
9810;DHT22;4944;52.514;13.192;2022-12-07T04:36:24;2.20;99.90
9810;DHT22;4944;52.514;13.192;2022-12-07T04:38:53;2.10;99.90
9810;DHT22;4944;52.514;13.192;2022-12-07T04:41:20;2.10;99.90
9810;DHT22;4944;52.514;13.192;2022-12-07T04:43:52;2.20;99.90
9810;DHT22;4944;52.514;13.192;2022-12-07T04:46:19;2.20;99.90
9810;DHT22;4944;52.514;13.192;2022-12-07T04:48:46;2.20;99.90
9810;DHT22;4944;52.514;13.192;2022-12-07T04:51:14;2.20;99.90
9810;DHT22;4944;52.514;13.192;2022-12-07T04:53:43;2.20;99.90
9810;DHT22;4944;52.514;13.192;2022-12-07T04:56:10;2.20;99.90
9810;DHT22;4944;52.514;13.192;2022-12-07T04:58:37;2.20;99.90
9810;DHT22;4944;52.514;13.192;2022-12-07T05:01:04;2.20;99.90
9810;DHT22;4944;52.514;13.192;2022-12-07T05:03:31;2.20;99.90
9810;DHT22;4944;52.514;13.192;2022-12-07T05:05:57;2.20;99.90
9810;DHT22;4944;52.514;13.192;2022-12-07T05:08:24;2.30;99.90
9810;DHT22;4944;52.514;13.192;2022-12-07T05:10:53;2.30;99.90
9810;DHT22;4944;52.514;13.192;2022-12-07T05:13:19;2.30;99.90
9810;DHT22;4944;52.514;13.192;2022-12-07T05:15:46;2.30;99.90
9810;DHT22;4944;52.514;13.192;2022-12-07T05:18:13;2.30;99.90
9810;DHT22;4944;52.514;13.192;2022-12-07T05:20:41;2.40;99.90
9810;DHT22;4944;52.514;13.192;2022-12-07T05:23:08;2.50;99.90
9810;DHT22;4944;52.514;13.192;2022-12-07T05:25:35;2.50;99.90
9810;DHT22;4944;52.514;13.192;2022-12-07T05:28:04;2.40;99.90
9810;DHT22;4944;52.514;13.192;2022-12-07T05:30:31;2.50;99.90
9810;DHT22;4944;52.514;13.192;2022-12-07T05:32:58;2.50;99.90
9810;DHT22;4944;52.514;13.192;2022-12-07T05:35:25;2.50;99.90
9810;DHT22;4944;52.514;13.192;2022-12-07T05:37:52;2.50;99.90
9810;DHT22;4944;52.514;13.192;2022-12-07T05:40:19;2.60;99.90
9810;DHT22;4944;52.514;13.192;2022-12-07T05:42:46;2.60;99.90
9810;DHT22;4944;52.514;13.192;2022-12-07T05:45:13;2.60;99.90
9810;DHT22;4944;52.514;13.192;2022-12-07T05:47:40;2.60;99.90
9810;DHT22;4944;52.514;13.192;2022-12-07T05:50:07;2.60;99.90
9810;DHT22;4944;52.514;13.192;2022-12-07T05:52:34;2.70;99.90
9810;DHT22;4944;52.514;13.192;2022-12-07T05:55:01;2.70;99.90
9810;DHT22;4944;52.514;13.192;2022-12-07T05:57:28;2.70;99.90
9810;DHT22;4944;52.514;13.192;2022-12-07T05:59:55;2.70;99.90
9810;DHT22;4944;52.514;13.192;2022-12-07T06:02:22;2.70;99.90
9810;DHT22;4944;52.514;13.192;2022-12-07T06:04:49;2.80;99.90
9810;DHT22;4944;52.514;13.192;2022-12-07T06:07:16;2.80;99.90
9810;DHT22;4944;52.514;13.192;2022-12-07T06:09:43;2.80;99.90
9810;DHT22;4944;52.514;13.192;2022-12-07T06:12:11;2.80;99.90
9810;DHT22;4944;52.514;13.192;2022-12-07T06:14:56;2.80;99.90
9810;DHT22;4944;52.514;13.192;2022-12-07T06:17:24;2.80;99.90
9810;DHT22;4944;52.514;13.192;2022-12-07T06:19:51;2.80;99.90
9810;DHT22;4944;52.514;13.192;2022-12-07T06:22:18;2.80;99.90
9810;DHT22;4944;52.514;13.192;2022-12-07T06:24:45;2.80;99.90
9810;DHT22;4944;52.514;13.192;2022-12-07T06:27:14;2.80;99.90
9810;DHT22;4944;52.514;13.192;2022-12-07T06:29:41;2.90;99.90
9810;DHT22;4944;52.514;13.192;2022-12-07T06:32:08;2.90;99.90
9810;DHT22;4944;52.514;13.192;2022-12-07T06:34:36;2.80;99.90
9810;DHT22;4944;52.514;13.192;2022-12-07T06:37:03;2.90;99.90
9810;DHT22;4944;52.514;13.192;2022-12-07T06:39:30;2.90;99.90
9810;DHT22;4944;52.514;13.192;2022-12-07T06:41:57;2.90;99.90
9810;DHT22;4944;52.514;13.192;2022-12-07T06:44:25;3.00;99.90
9810;DHT22;4944;52.514;13.192;2022-12-07T06:46:52;3.00;99.90
9810;DHT22;4944;52.514;13.192;2022-12-07T06:49:19;3.00;99.90
9810;DHT22;4944;52.514;13.192;2022-12-07T06:51:47;3.00;99.90
9810;DHT22;4944;52.514;13.192;2022-12-07T06:54:15;3.10;99.90
9810;DHT22;4944;52.514;13.192;2022-12-07T06:56:42;3.10;99.90
9810;DHT22;4944;52.514;13.192;2022-12-07T06:59:09;3.10;99.90
9810;DHT22;4944;52.514;13.192;2022-12-07T07:01:36;3.10;99.90
9810;DHT22;4944;52.514;13.192;2022-12-07T07:04:03;3.20;99.90
9810;DHT22;4944;52.514;13.192;2022-12-07T07:06:30;3.20;99.90
9810;DHT22;4944;52.514;13.192;2022-12-07T07:08:59;3.20;99.90
9810;DHT22;4944;52.514;13.192;2022-12-07T07:11:25;3.20;99.90
9810;DHT22;4944;52.514;13.192;2022-12-07T07:13:52;3.20;99.90
9810;DHT22;4944;52.514;13.192;2022-12-07T07:16:22;3.30;99.90
9810;DHT22;4944;52.514;13.192;2022-12-07T07:18:49;3.30;99.90
9810;DHT22;4944;52.514;13.192;2022-12-07T07:21:16;3.30;99.90
9810;DHT22;4944;52.514;13.192;2022-12-07T07:23:43;3.30;99.90
9810;DHT22;4944;52.514;13.192;2022-12-07T07:26:11;3.30;99.90
9810;DHT22;4944;52.514;13.192;2022-12-07T07:28:38;3.30;99.90
9810;DHT22;4944;52.514;13.192;2022-12-07T07:31:05;3.30;99.90
9810;DHT22;4944;52.514;13.192;2022-12-07T07:33:32;3.30;99.90
9810;DHT22;4944;52.514;13.192;2022-12-07T07:35:59;3.30;99.90
9810;DHT22;4944;52.514;13.192;2022-12-07T07:38:25;3.30;99.90
9810;DHT22;4944;52.514;13.192;2022-12-07T07:40:52;3.30;99.90
9810;DHT22;4944;52.514;13.192;2022-12-07T07:43:21;3.30;99.90
9810;DHT22;4944;52.514;13.192;2022-12-07T07:45:47;3.30;99.90
9810;DHT22;4944;52.514;13.192;2022-12-07T07:48:14;3.30;99.90
9810;DHT22;4944;52.514;13.192;2022-12-07T07:50:41;3.30;99.90
9810;DHT22;4944;52.514;13.192;2022-12-07T07:53:08;3.30;99.90
9810;DHT22;4944;52.514;13.192;2022-12-07T07:55:35;3.30;99.90
9810;DHT22;4944;52.514;13.192;2022-12-07T07:58:02;3.40;99.90
9810;DHT22;4944;52.514;13.192;2022-12-07T08:00:30;3.40;99.90
9810;DHT22;4944;52.514;13.192;2022-12-07T08:02:57;3.40;99.90
9810;DHT22;4944;52.514;13.192;2022-12-07T08:05:24;3.50;99.90
9810;DHT22;4944;52.514;13.192;2022-12-07T08:07:51;3.50;99.90
9810;DHT22;4944;52.514;13.192;2022-12-07T08:10:18;3.50;99.90
9810;DHT22;4944;52.514;13.192;2022-12-07T08:12:45;3.50;99.90
9810;DHT22;4944;52.514;13.192;2022-12-07T08:15:26;3.50;99.90
9810;DHT22;4944;52.514;13.192;2022-12-07T08:17:55;3.50;99.90
9810;DHT22;4944;52.514;13.192;2022-12-07T08:20:22;3.50;99.90
9810;DHT22;4944;52.514;13.192;2022-12-07T08:22:49;3.50;99.90
9810;DHT22;4944;52.514;13.192;2022-12-07T08:25:16;3.50;99.90
9810;DHT22;4944;52.514;13.192;2022-12-07T08:27:43;3.50;99.90
9810;DHT22;4944;52.514;13.192;2022-12-07T08:30:10;3.50;99.90
9810;DHT22;4944;52.514;13.192;2022-12-07T08:32:37;3.50;99.90
9810;DHT22;4944;52.514;13.192;2022-12-07T08:35:06;3.60;99.90
9810;DHT22;4944;52.514;13.192;2022-12-07T08:37:33;3.60;99.90
9810;DHT22;4944;52.514;13.192;2022-12-07T08:40:00;3.60;99.90
9810;DHT22;4944;52.514;13.192;2022-12-07T08:42:27;3.60;99.90
9810;DHT22;4944;52.514;13.192;2022-12-07T08:44:55;3.60;99.90
9810;DHT22;4944;52.514;13.192;2022-12-07T08:47:24;3.60;99.90
9810;DHT22;4944;52.514;13.192;2022-12-07T08:49:51;3.60;99.90
9810;DHT22;4944;52.514;13.192;2022-12-07T08:52:20;3.60;99.90
9810;DHT22;4944;52.514;13.192;2022-12-07T08:54:48;3.60;99.90
9810;DHT22;4944;52.514;13.192;2022-12-07T08:57:15;3.60;99.90
9810;DHT22;4944;52.514;13.192;2022-12-07T08:59:42;3.60;99.90
9810;DHT22;4944;52.514;13.192;2022-12-07T09:02:09;3.60;99.90
9810;DHT22;4944;52.514;13.192;2022-12-07T09:04:36;3.60;99.90
9810;DHT22;4944;52.514;13.192;2022-12-07T09:07:03;3.60;99.90
9810;DHT22;4944;52.514;13.192;2022-12-07T09:09:31;3.60;99.90
9810;DHT22;4944;52.514;13.192;2022-12-07T09:11:58;3.60;99.90
9810;DHT22;4944;52.514;13.192;2022-12-07T09:14:25;3.50;99.90
9810;DHT22;4944;52.514;13.192;2022-12-07T09:16:52;3.60;99.90
9810;DHT22;4944;52.514;13.192;2022-12-07T09:19:19;3.60;99.90
9810;DHT22;4944;52.514;13.192;2022-12-07T09:21:46;3.60;99.90
9810;DHT22;4944;52.514;13.192;2022-12-07T09:24:13;3.50;99.90
9810;DHT22;4944;52.514;13.192;2022-12-07T09:26:41;3.50;99.90
9810;DHT22;4944;52.514;13.192;2022-12-07T09:29:09;3.50;99.90
9810;DHT22;4944;52.514;13.192;2022-12-07T09:31:37;3.50;99.90
9810;DHT22;4944;52.514;13.192;2022-12-07T09:34:03;3.50;99.90
9810;DHT22;4944;52.514;13.192;2022-12-07T09:36:31;3.40;99.90
9810;DHT22;4944;52.514;13.192;2022-12-07T09:38:58;3.50;99.90
9810;DHT22;4944;52.514;13.192;2022-12-07T09:41:27;3.50;99.90
9810;DHT22;4944;52.514;13.192;2022-12-07T09:44:00;3.50;99.90
9810;DHT22;4944;52.514;13.192;2022-12-07T09:46:34;3.40;99.90
9810;DHT22;4944;52.514;13.192;2022-12-07T09:49:02;3.40;99.90
9810;DHT22;4944;52.514;13.192;2022-12-07T09:51:29;3.40;99.90
9810;DHT22;4944;52.514;13.192;2022-12-07T09:53:57;3.40;99.90
9810;DHT22;4944;52.514;13.192;2022-12-07T09:56:25;3.40;99.90
9810;DHT22;4944;52.514;13.192;2022-12-07T09:58:58;3.40;99.90
9810;DHT22;4944;52.514;13.192;2022-12-07T10:01:29;3.40;99.90
9810;DHT22;4944;52.514;13.192;2022-12-07T10:04:01;3.40;99.90
9810;DHT22;4944;52.514;13.192;2022-12-07T10:06:28;3.40;99.90
9810;DHT22;4944;52.514;13.192;2022-12-07T10:08:55;3.40;99.90
9810;DHT22;4944;52.514;13.192;2022-12-07T10:11:22;3.50;99.90
9810;DHT22;4944;52.514;13.192;2022-12-07T10:13:51;3.40;99.90
9810;DHT22;4944;52.514;13.192;2022-12-07T10:16:47;3.40;99.90
9810;DHT22;4944;52.514;13.192;2022-12-07T10:19:21;3.40;99.90
9810;DHT22;4944;52.514;13.192;2022-12-07T10:22:04;3.40;99.90
9810;DHT22;4944;52.514;13.192;2022-12-07T10:24:31;3.40;99.90
9810;DHT22;4944;52.514;13.192;2022-12-07T10:26:58;3.40;99.90
9810;DHT22;4944;52.514;13.192;2022-12-07T10:29:29;3.30;99.90
9810;DHT22;4944;52.514;13.192;2022-12-07T10:31:59;3.40;99.90
9810;DHT22;4944;52.514;13.192;2022-12-07T10:34:28;3.40;99.90
9810;DHT22;4944;52.514;13.192;2022-12-07T10:37:14;3.40;99.90
9810;DHT22;4944;52.514;13.192;2022-12-07T10:39:43;3.40;99.90
9810;DHT22;4944;52.514;13.192;2022-12-07T10:42:19;3.50;99.90
9810;DHT22;4944;52.514;13.192;2022-12-07T10:44:46;3.50;99.90
9810;DHT22;4944;52.514;13.192;2022-12-07T10:47:29;3.50;99.90
9810;DHT22;4944;52.514;13.192;2022-12-07T10:50:17;3.50;99.90
9810;DHT22;4944;52.514;13.192;2022-12-07T10:56:01;3.50;99.90
9810;DHT22;4944;52.514;13.192;2022-12-07T10:58:45;3.50;99.90
9810;DHT22;4944;52.514;13.192;2022-12-07T11:01:20;3.60;99.90
9810;DHT22;4944;52.514;13.192;2022-12-07T11:04:02;3.60;99.90
9810;DHT22;4944;52.514;13.192;2022-12-07T11:06:35;3.60;99.90
9810;DHT22;4944;52.514;13.192;2022-12-07T11:12:08;3.60;99.90
9810;DHT22;4944;52.514;13.192;2022-12-07T11:14:43;3.60;99.90
9810;DHT22;4944;52.514;13.192;2022-12-07T11:17:16;3.60;99.90
9810;DHT22;4944;52.514;13.192;2022-12-07T11:19:54;3.70;99.90
9810;DHT22;4944;52.514;13.192;2022-12-07T11:22:32;3.70;99.90
9810;DHT22;4944;52.514;13.192;2022-12-07T11:25:17;3.70;99.90
9810;DHT22;4944;52.514;13.192;2022-12-07T11:28:00;3.70;99.90
9810;DHT22;4944;52.514;13.192;2022-12-07T11:30:34;3.70;99.90
9810;DHT22;4944;52.514;13.192;2022-12-07T11:33:17;3.70;99.90
9810;DHT22;4944;52.514;13.192;2022-12-07T11:35:54;3.70;99.90
9810;DHT22;4944;52.514;13.192;2022-12-07T11:38:37;3.70;99.90
9810;DHT22;4944;52.514;13.192;2022-12-07T11:41:08;3.80;99.90
9810;DHT22;4944;52.514;13.192;2022-12-07T11:43:54;3.80;99.90
9810;DHT22;4944;52.514;13.192;2022-12-07T11:46:25;3.80;99.90
9810;DHT22;4944;52.514;13.192;2022-12-07T11:49:01;3.80;99.90
9810;DHT22;4944;52.514;13.192;2022-12-07T11:51:34;3.90;99.90
9810;DHT22;4944;52.514;13.192;2022-12-07T11:54:05;3.90;99.90
9810;DHT22;4944;52.514;13.192;2022-12-07T11:56:38;3.90;99.90
9810;DHT22;4944;52.514;13.192;2022-12-07T11:59:11;3.90;99.90
9810;DHT22;4944;52.514;13.192;2022-12-07T12:01:47;3.90;99.90
9810;DHT22;4944;52.514;13.192;2022-12-07T12:04:28;4.00;99.90
9810;DHT22;4944;52.514;13.192;2022-12-07T12:06:58;4.00;99.90
9810;DHT22;4944;52.514;13.192;2022-12-07T12:09:30;4.00;99.90
9810;DHT22;4944;52.514;13.192;2022-12-07T12:15:13;4.00;99.90
9810;DHT22;4944;52.514;13.192;2022-12-07T12:18:06;4.00;99.90
9810;DHT22;4944;52.514;13.192;2022-12-07T12:20:40;4.00;99.90
9810;DHT22;4944;52.514;13.192;2022-12-07T12:23:13;4.00;99.90
9810;DHT22;4944;52.514;13.192;2022-12-07T12:25:44;4.00;99.90
9810;DHT22;4944;52.514;13.192;2022-12-07T12:28:28;4.10;99.90
9810;DHT22;4944;52.514;13.192;2022-12-07T12:31:07;4.20;99.90
9810;DHT22;4944;52.514;13.192;2022-12-07T12:33:37;4.20;99.90
9810;DHT22;4944;52.514;13.192;2022-12-07T12:36:24;4.20;99.90
9810;DHT22;4944;52.514;13.192;2022-12-07T12:41:58;4.30;99.90
9810;DHT22;4944;52.514;13.192;2022-12-07T12:47:41;4.30;99.90
9810;DHT22;4944;52.514;13.192;2022-12-07T12:50:17;4.20;99.90
9810;DHT22;4944;52.514;13.192;2022-12-07T12:53:00;4.20;99.90
9810;DHT22;4944;52.514;13.192;2022-12-07T12:58:47;4.30;99.90
9810;DHT22;4944;52.514;13.192;2022-12-07T13:01:44;4.30;99.90
9810;DHT22;4944;52.514;13.192;2022-12-07T13:10:44;4.40;99.90
9810;DHT22;4944;52.514;13.192;2022-12-07T13:13:33;4.40;99.90
9810;DHT22;4944;52.514;13.192;2022-12-07T13:19:02;4.40;99.90
9810;DHT22;4944;52.514;13.192;2022-12-07T13:21:43;4.40;99.90
9810;DHT22;4944;52.514;13.192;2022-12-07T13:24:12;4.30;99.90
9810;DHT22;4944;52.514;13.192;2022-12-07T13:26:42;4.40;99.90
9810;DHT22;4944;52.514;13.192;2022-12-07T13:29:12;4.30;99.90
9810;DHT22;4944;52.514;13.192;2022-12-07T13:31:41;4.30;99.90
9810;DHT22;4944;52.514;13.192;2022-12-07T13:34:31;4.30;99.90
9810;DHT22;4944;52.514;13.192;2022-12-07T13:36:59;4.30;99.90
9810;DHT22;4944;52.514;13.192;2022-12-07T13:39:27;4.30;99.90
9810;DHT22;4944;52.514;13.192;2022-12-07T13:41:56;4.30;99.90
9810;DHT22;4944;52.514;13.192;2022-12-07T13:44:24;4.30;99.90
9810;DHT22;4944;52.514;13.192;2022-12-07T13:47:01;4.20;99.90
9810;DHT22;4944;52.514;13.192;2022-12-07T13:49:36;4.20;99.90
9810;DHT22;4944;52.514;13.192;2022-12-07T13:52:16;4.20;99.90
9810;DHT22;4944;52.514;13.192;2022-12-07T13:54:46;4.20;99.90
9810;DHT22;4944;52.514;13.192;2022-12-07T13:57:14;4.20;99.90
9810;DHT22;4944;52.514;13.192;2022-12-07T13:59:42;4.20;99.90
9810;DHT22;4944;52.514;13.192;2022-12-07T14:02:19;4.20;99.90
9810;DHT22;4944;52.514;13.192;2022-12-07T14:04:48;4.20;99.90
9810;DHT22;4944;52.514;13.192;2022-12-07T14:07:21;4.20;99.90
9810;DHT22;4944;52.514;13.192;2022-12-07T14:09:57;4.20;99.90
9810;DHT22;4944;52.514;13.192;2022-12-07T14:12:24;4.20;99.90
9810;DHT22;4944;52.514;13.192;2022-12-07T14:14:52;4.20;99.90
9810;DHT22;4944;52.514;13.192;2022-12-07T14:17:21;4.10;99.90
9810;DHT22;4944;52.514;13.192;2022-12-07T14:19:52;4.20;99.90
9810;DHT22;4944;52.514;13.192;2022-12-07T14:22:29;4.10;99.90
9810;DHT22;4944;52.514;13.192;2022-12-07T14:25:16;4.10;99.90
9810;DHT22;4944;52.514;13.192;2022-12-07T14:27:53;4.10;99.90
9810;DHT22;4944;52.514;13.192;2022-12-07T14:30:22;4.10;99.90
9810;DHT22;4944;52.514;13.192;2022-12-07T14:32:52;4.10;99.90
9810;DHT22;4944;52.514;13.192;2022-12-07T14:35:21;4.10;99.90
9810;DHT22;4944;52.514;13.192;2022-12-07T14:37:49;4.10;99.90
9810;DHT22;4944;52.514;13.192;2022-12-07T14:40:18;4.00;99.90
9810;DHT22;4944;52.514;13.192;2022-12-07T14:42:46;4.00;99.90
9810;DHT22;4944;52.514;13.192;2022-12-07T14:45:16;3.90;99.90
9810;DHT22;4944;52.514;13.192;2022-12-07T14:47:44;3.90;99.90
9810;DHT22;4944;52.514;13.192;2022-12-07T14:50:12;3.80;99.90
9810;DHT22;4944;52.514;13.192;2022-12-07T14:52:42;3.80;99.90
9810;DHT22;4944;52.514;13.192;2022-12-07T14:55:23;3.80;99.90
9810;DHT22;4944;52.514;13.192;2022-12-07T14:57:50;3.70;99.90
9810;DHT22;4944;52.514;13.192;2022-12-07T15:00:19;3.70;99.90
9810;DHT22;4944;52.514;13.192;2022-12-07T15:02:47;3.70;99.90
9810;DHT22;4944;52.514;13.192;2022-12-07T15:05:14;3.70;99.90
9810;DHT22;4944;52.514;13.192;2022-12-07T15:07:43;3.70;99.90
9810;DHT22;4944;52.514;13.192;2022-12-07T15:10:16;3.70;99.90
9810;DHT22;4944;52.514;13.192;2022-12-07T15:12:43;3.60;99.90
9810;DHT22;4944;52.514;13.192;2022-12-07T15:15:10;3.60;99.90
9810;DHT22;4944;52.514;13.192;2022-12-07T15:17:37;3.70;99.90
9810;DHT22;4944;52.514;13.192;2022-12-07T15:20:07;3.60;99.90
9810;DHT22;4944;52.514;13.192;2022-12-07T15:22:34;3.60;99.90
9810;DHT22;4944;52.514;13.192;2022-12-07T15:25:03;3.60;99.90
9810;DHT22;4944;52.514;13.192;2022-12-07T15:27:31;3.60;99.90
9810;DHT22;4944;52.514;13.192;2022-12-07T15:29:58;3.60;99.90
9810;DHT22;4944;52.514;13.192;2022-12-07T15:32:25;3.60;99.90
9810;DHT22;4944;52.514;13.192;2022-12-07T15:34:52;3.60;99.90
9810;DHT22;4944;52.514;13.192;2022-12-07T15:37:18;3.70;99.90
9810;DHT22;4944;52.514;13.192;2022-12-07T15:39:45;3.60;99.90
9810;DHT22;4944;52.514;13.192;2022-12-07T15:42:13;3.60;99.90
9810;DHT22;4944;52.514;13.192;2022-12-07T15:44:40;3.60;99.90
9810;DHT22;4944;52.514;13.192;2022-12-07T15:47:38;3.60;99.90
9810;DHT22;4944;52.514;13.192;2022-12-07T15:50:07;3.60;99.90
9810;DHT22;4944;52.514;13.192;2022-12-07T15:52:34;3.50;99.90
9810;DHT22;4944;52.514;13.192;2022-12-07T15:55:02;3.50;99.90
9810;DHT22;4944;52.514;13.192;2022-12-07T15:57:31;3.40;99.90
9810;DHT22;4944;52.514;13.192;2022-12-07T15:59:58;3.40;99.90
9810;DHT22;4944;52.514;13.192;2022-12-07T16:02:25;3.40;99.90
9810;DHT22;4944;52.514;13.192;2022-12-07T16:04:52;3.30;99.90
9810;DHT22;4944;52.514;13.192;2022-12-07T16:07:19;3.30;99.90
9810;DHT22;4944;52.514;13.192;2022-12-07T16:09:46;3.30;99.90
9810;DHT22;4944;52.514;13.192;2022-12-07T16:12:15;3.20;99.90
9810;DHT22;4944;52.514;13.192;2022-12-07T16:14:43;3.20;99.90
9810;DHT22;4944;52.514;13.192;2022-12-07T16:17:10;3.20;99.90
9810;DHT22;4944;52.514;13.192;2022-12-07T16:19:37;3.20;99.90
9810;DHT22;4944;52.514;13.192;2022-12-07T16:22:04;3.10;99.90
9810;DHT22;4944;52.514;13.192;2022-12-07T16:24:32;3.10;99.90
9810;DHT22;4944;52.514;13.192;2022-12-07T16:26:59;3.10;99.90
9810;DHT22;4944;52.514;13.192;2022-12-07T16:29:25;3.10;99.90
9810;DHT22;4944;52.514;13.192;2022-12-07T16:31:54;3.10;99.90
9810;DHT22;4944;52.514;13.192;2022-12-07T16:34:21;3.10;99.90
9810;DHT22;4944;52.514;13.192;2022-12-07T16:36:48;3.10;99.90
9810;DHT22;4944;52.514;13.192;2022-12-07T16:39:15;3.00;99.90
9810;DHT22;4944;52.514;13.192;2022-12-07T16:41:43;3.00;99.90
9810;DHT22;4944;52.514;13.192;2022-12-07T16:44:11;3.00;99.90
9810;DHT22;4944;52.514;13.192;2022-12-07T16:46:39;3.00;99.90
9810;DHT22;4944;52.514;13.192;2022-12-07T16:49:11;3.00;99.90
9810;DHT22;4944;52.514;13.192;2022-12-07T16:51:39;3.00;99.90